sensor_id;sensor_type;location;lat;lon;timestamp;temperature;humidity
38514;DHT22;24282;48.400;10.808;2023-12-20T00:01:05;5.50;64.40
38514;DHT22;24282;48.400;10.808;2023-12-20T00:03:30;5.50;64.70
38514;DHT22;24282;48.400;10.808;2023-12-20T00:05:56;5.50;65.30
38514;DHT22;24282;48.400;10.808;2023-12-20T00:08:22;5.50;65.20
38514;DHT22;24282;48.400;10.808;2023-12-20T00:10:48;5.50;65.30
38514;DHT22;24282;48.400;10.808;2023-12-20T00:13:13;5.60;65.00
38514;DHT22;24282;48.400;10.808;2023-12-20T00:15:39;5.70;64.90
38514;DHT22;24282;48.400;10.808;2023-12-20T00:18:05;5.60;64.70
38514;DHT22;24282;48.400;10.808;2023-12-20T00:20:30;5.70;64.50
38514;DHT22;24282;48.400;10.808;2023-12-20T00:22:57;5.70;64.70
38514;DHT22;24282;48.400;10.808;2023-12-20T00:25:26;5.60;64.90
38514;DHT22;24282;48.400;10.808;2023-12-20T00:27:52;5.60;65.20
38514;DHT22;24282;48.400;10.808;2023-12-20T00:30:18;5.60;65.50
38514;DHT22;24282;48.400;10.808;2023-12-20T00:32:44;5.50;66.10
38514;DHT22;24282;48.400;10.808;2023-12-20T00:35:15;5.50;66.50
38514;DHT22;24282;48.400;10.808;2023-12-20T00:37:42;5.50;66.50
38514;DHT22;24282;48.400;10.808;2023-12-20T00:40:08;5.50;66.30
38514;DHT22;24282;48.400;10.808;2023-12-20T00:42:35;5.50;66.10
38514;DHT22;24282;48.400;10.808;2023-12-20T00:45:03;5.50;65.80
38514;DHT22;24282;48.400;10.808;2023-12-20T00:47:30;5.60;65.60
38514;DHT22;24282;48.400;10.808;2023-12-20T00:49:57;5.60;65.60
38514;DHT22;24282;48.400;10.808;2023-12-20T00:52:23;5.60;65.70
38514;DHT22;24282;48.400;10.808;2023-12-20T00:54:50;5.60;65.60
38514;DHT22;24282;48.400;10.808;2023-12-20T00:57:16;5.70;65.70
38514;DHT22;24282;48.400;10.808;2023-12-20T00:59:41;5.70;65.90
38514;DHT22;24282;48.400;10.808;2023-12-20T01:02:07;5.90;65.50
38514;DHT22;24282;48.400;10.808;2023-12-20T01:04:34;6.00;65.40
38514;DHT22;24282;48.400;10.808;2023-12-20T01:07:00;6.00;65.50
38514;DHT22;24282;48.400;10.808;2023-12-20T01:09:25;5.90;65.90
38514;DHT22;24282;48.400;10.808;2023-12-20T01:11:54;5.90;66.10
38514;DHT22;24282;48.400;10.808;2023-12-20T01:14:20;5.90;66.30
38514;DHT22;24282;48.400;10.808;2023-12-20T01:16:46;6.00;66.20
38514;DHT22;24282;48.400;10.808;2023-12-20T01:19:12;6.10;66.20
38514;DHT22;24282;48.400;10.808;2023-12-20T01:21:39;6.00;66.50
38514;DHT22;24282;48.400;10.808;2023-12-20T01:24:04;6.00;66.80
38514;DHT22;24282;48.400;10.808;2023-12-20T01:26:30;6.20;66.50
38514;DHT22;24282;48.400;10.808;2023-12-20T01:28:56;6.20;66.30
38514;DHT22;24282;48.400;10.808;2023-12-20T01:31:21;6.00;66.90
38514;DHT22;24282;48.400;10.808;2023-12-20T01:33:47;6.00;67.30
38514;DHT22;24282;48.400;10.808;2023-12-20T01:36:13;6.00;67.00
38514;DHT22;24282;48.400;10.808;2023-12-20T01:38:38;6.00;67.20
38514;DHT22;24282;48.400;10.808;2023-12-20T01:41:04;6.00;67.50
38514;DHT22;24282;48.400;10.808;2023-12-20T01:43:30;5.90;66.90
38514;DHT22;24282;48.400;10.808;2023-12-20T01:45:57;5.90;66.70
38514;DHT22;24282;48.400;10.808;2023-12-20T01:48:24;6.00;66.60
38514;DHT22;24282;48.400;10.808;2023-12-20T01:50:51;6.00;66.40
38514;DHT22;24282;48.400;10.808;2023-12-20T01:53:17;6.00;66.70
38514;DHT22;24282;48.400;10.808;2023-12-20T01:55:44;5.90;66.50
38514;DHT22;24282;48.400;10.808;2023-12-20T01:58:11;5.90;66.80
38514;DHT22;24282;48.400;10.808;2023-12-20T02:00:37;5.90;66.90
38514;DHT22;24282;48.400;10.808;2023-12-20T02:03:04;5.90;66.80
38514;DHT22;24282;48.400;10.808;2023-12-20T02:05:30;5.80;66.80
38514;DHT22;24282;48.400;10.808;2023-12-20T02:07:56;5.80;67.00
38514;DHT22;24282;48.400;10.808;2023-12-20T02:10:23;5.80;67.10
38514;DHT22;24282;48.400;10.808;2023-12-20T02:12:49;5.80;67.40
38514;DHT22;24282;48.400;10.808;2023-12-20T02:15:14;5.90;67.30
38514;DHT22;24282;48.400;10.808;2023-12-20T02:17:40;6.00;67.50
38514;DHT22;24282;48.400;10.808;2023-12-20T02:20:07;6.00;67.60
38514;DHT22;24282;48.400;10.808;2023-12-20T02:22:32;6.00;67.90
38514;DHT22;24282;48.400;10.808;2023-12-20T02:24:58;6.00;68.40
38514;DHT22;24282;48.400;10.808;2023-12-20T02:27:24;6.00;68.50
38514;DHT22;24282;48.400;10.808;2023-12-20T02:29:50;6.00;68.30
38514;DHT22;24282;48.400;10.808;2023-12-20T02:32:19;6.00;68.80
38514;DHT22;24282;48.400;10.808;2023-12-20T02:34:47;6.00;69.00
38514;DHT22;24282;48.400;10.808;2023-12-20T02:37:13;6.00;69.20
38514;DHT22;24282;48.400;10.808;2023-12-20T02:39:39;6.00;69.70
38514;DHT22;24282;48.400;10.808;2023-12-20T02:42:04;5.90;70.00
38514;DHT22;24282;48.400;10.808;2023-12-20T02:44:30;5.90;70.30
38514;DHT22;24282;48.400;10.808;2023-12-20T02:46:56;5.90;70.60
38514;DHT22;24282;48.400;10.808;2023-12-20T02:49:21;5.80;71.20
38514;DHT22;24282;48.400;10.808;2023-12-20T02:51:47;5.80;72.00
38514;DHT22;24282;48.400;10.808;2023-12-20T02:54:13;5.80;72.20
38514;DHT22;24282;48.400;10.808;2023-12-20T02:56:39;5.90;72.70
38514;DHT22;24282;48.400;10.808;2023-12-20T02:59:04;5.80;73.50
38514;DHT22;24282;48.400;10.808;2023-12-20T03:01:31;5.80;74.60
38514;DHT22;24282;48.400;10.808;2023-12-20T03:03:57;5.80;75.00
38514;DHT22;24282;48.400;10.808;2023-12-20T03:06:23;5.70;76.70
38514;DHT22;24282;48.400;10.808;2023-12-20T03:08:50;5.70;77.20
38514;DHT22;24282;48.400;10.808;2023-12-20T03:11:15;5.60;78.70
38514;DHT22;24282;48.400;10.808;2023-12-20T03:13:41;5.50;79.30
38514;DHT22;24282;48.400;10.808;2023-12-20T03:16:13;5.50;80.10
38514;DHT22;24282;48.400;10.808;2023-12-20T03:18:40;5.50;80.70
38514;DHT22;24282;48.400;10.808;2023-12-20T03:21:06;5.40;81.10
38514;DHT22;24282;48.400;10.808;2023-12-20T03:23:31;5.40;81.70
38514;DHT22;24282;48.400;10.808;2023-12-20T03:26:02;5.30;82.40
38514;DHT22;24282;48.400;10.808;2023-12-20T03:28:29;5.20;82.70
38514;DHT22;24282;48.400;10.808;2023-12-20T03:30:55;5.20;83.20
38514;DHT22;24282;48.400;10.808;2023-12-20T03:33:21;5.30;83.70
38514;DHT22;24282;48.400;10.808;2023-12-20T03:35:46;5.10;83.80
38514;DHT22;24282;48.400;10.808;2023-12-20T03:38:12;5.20;83.90
38514;DHT22;24282;48.400;10.808;2023-12-20T03:40:38;5.20;84.40
38514;DHT22;24282;48.400;10.808;2023-12-20T03:43:03;5.20;84.70
38514;DHT22;24282;48.400;10.808;2023-12-20T03:45:29;5.10;84.80
38514;DHT22;24282;48.400;10.808;2023-12-20T03:47:55;5.20;84.70
38514;DHT22;24282;48.400;10.808;2023-12-20T03:50:25;5.10;84.90
38514;DHT22;24282;48.400;10.808;2023-12-20T03:52:51;5.20;85.20
38514;DHT22;24282;48.400;10.808;2023-12-20T03:55:17;5.20;85.10
38514;DHT22;24282;48.400;10.808;2023-12-20T03:57:42;5.20;85.50
38514;DHT22;24282;48.400;10.808;2023-12-20T04:00:09;5.20;85.60
38514;DHT22;24282;48.400;10.808;2023-12-20T04:02:38;5.20;85.90
38514;DHT22;24282;48.400;10.808;2023-12-20T04:05:04;5.20;85.90
38514;DHT22;24282;48.400;10.808;2023-12-20T04:07:30;5.10;86.20
38514;DHT22;24282;48.400;10.808;2023-12-20T04:09:56;5.10;86.60
38514;DHT22;24282;48.400;10.808;2023-12-20T04:12:24;5.00;86.80
38514;DHT22;24282;48.400;10.808;2023-12-20T04:14:50;5.00;86.90
38514;DHT22;24282;48.400;10.808;2023-12-20T04:17:16;5.10;87.00
38514;DHT22;24282;48.400;10.808;2023-12-20T04:19:44;5.00;87.20
38514;DHT22;24282;48.400;10.808;2023-12-20T04:22:10;5.10;87.30
38514;DHT22;24282;48.400;10.808;2023-12-20T04:24:36;5.10;87.40
38514;DHT22;24282;48.400;10.808;2023-12-20T04:27:02;5.00;87.50
38514;DHT22;24282;48.400;10.808;2023-12-20T04:29:28;5.00;87.70
38514;DHT22;24282;48.400;10.808;2023-12-20T04:31:53;5.00;87.70
38514;DHT22;24282;48.400;10.808;2023-12-20T04:34:20;5.00;87.70
38514;DHT22;24282;48.400;10.808;2023-12-20T04:36:46;5.00;87.90
38514;DHT22;24282;48.400;10.808;2023-12-20T04:39:13;4.90;88.00
38514;DHT22;24282;48.400;10.808;2023-12-20T04:41:38;5.00;88.30
38514;DHT22;24282;48.400;10.808;2023-12-20T04:44:06;5.00;88.30
38514;DHT22;24282;48.400;10.808;2023-12-20T04:46:32;5.00;88.20
38514;DHT22;24282;48.400;10.808;2023-12-20T04:48:58;5.10;88.20
38514;DHT22;24282;48.400;10.808;2023-12-20T04:51:23;5.10;88.00
38514;DHT22;24282;48.400;10.808;2023-12-20T04:53:49;5.10;87.90
38514;DHT22;24282;48.400;10.808;2023-12-20T04:56:15;5.10;88.00
38514;DHT22;24282;48.400;10.808;2023-12-20T04:58:42;5.10;88.10
38514;DHT22;24282;48.400;10.808;2023-12-20T05:01:09;5.10;88.20
38514;DHT22;24282;48.400;10.808;2023-12-20T05:03:35;5.10;88.10
38514;DHT22;24282;48.400;10.808;2023-12-20T05:06:01;5.10;88.20
38514;DHT22;24282;48.400;10.808;2023-12-20T05:08:27;5.10;88.50
38514;DHT22;24282;48.400;10.808;2023-12-20T05:10:56;5.10;88.40
38514;DHT22;24282;48.400;10.808;2023-12-20T05:13:22;5.00;88.40
38514;DHT22;24282;48.400;10.808;2023-12-20T05:15:47;5.10;88.60
38514;DHT22;24282;48.400;10.808;2023-12-20T05:18:13;5.00;88.60
38514;DHT22;24282;48.400;10.808;2023-12-20T05:20:40;5.10;88.40
38514;DHT22;24282;48.400;10.808;2023-12-20T05:23:06;5.10;88.40
38514;DHT22;24282;48.400;10.808;2023-12-20T05:25:32;5.10;88.60
38514;DHT22;24282;48.400;10.808;2023-12-20T05:27:58;5.20;88.30
38514;DHT22;24282;48.400;10.808;2023-12-20T05:30:24;5.10;88.20
38514;DHT22;24282;48.400;10.808;2023-12-20T05:32:49;5.10;88.50
38514;DHT22;24282;48.400;10.808;2023-12-20T05:35:15;5.00;88.70
38514;DHT22;24282;48.400;10.808;2023-12-20T05:37:41;5.00;88.60
38514;DHT22;24282;48.400;10.808;2023-12-20T05:40:07;5.00;88.70
38514;DHT22;24282;48.400;10.808;2023-12-20T05:42:37;5.10;88.50
38514;DHT22;24282;48.400;10.808;2023-12-20T05:45:04;5.10;88.40
38514;DHT22;24282;48.400;10.808;2023-12-20T05:47:29;5.10;88.20
38514;DHT22;24282;48.400;10.808;2023-12-20T05:49:55;5.20;87.80
38514;DHT22;24282;48.400;10.808;2023-12-20T05:52:21;5.20;88.00
38514;DHT22;24282;48.400;10.808;2023-12-20T05:54:47;5.20;87.80
38514;DHT22;24282;48.400;10.808;2023-12-20T05:57:13;5.10;88.30
38514;DHT22;24282;48.400;10.808;2023-12-20T05:59:38;5.10;88.60
38514;DHT22;24282;48.400;10.808;2023-12-20T06:02:04;5.10;88.40
38514;DHT22;24282;48.400;10.808;2023-12-20T06:04:30;5.10;88.40
38514;DHT22;24282;48.400;10.808;2023-12-20T06:06:56;5.10;88.70
38514;DHT22;24282;48.400;10.808;2023-12-20T06:09:22;5.00;88.90
38514;DHT22;24282;48.400;10.808;2023-12-20T06:11:50;5.10;88.70
38514;DHT22;24282;48.400;10.808;2023-12-20T06:14:16;5.00;88.80
38514;DHT22;24282;48.400;10.808;2023-12-20T06:16:42;5.00;89.20
38514;DHT22;24282;48.400;10.808;2023-12-20T06:19:08;5.10;89.00
38514;DHT22;24282;48.400;10.808;2023-12-20T06:21:34;5.10;88.80
38514;DHT22;24282;48.400;10.808;2023-12-20T06:23:59;5.00;88.80
38514;DHT22;24282;48.400;10.808;2023-12-20T06:26:25;5.00;89.00
38514;DHT22;24282;48.400;10.808;2023-12-20T06:28:51;5.00;89.10
38514;DHT22;24282;48.400;10.808;2023-12-20T06:31:17;5.00;89.00
38514;DHT22;24282;48.400;10.808;2023-12-20T06:33:43;5.00;89.20
38514;DHT22;24282;48.400;10.808;2023-12-20T06:36:13;5.00;88.90
38514;DHT22;24282;48.400;10.808;2023-12-20T06:38:39;5.00;89.10
38514;DHT22;24282;48.400;10.808;2023-12-20T06:41:05;5.00;88.90
38514;DHT22;24282;48.400;10.808;2023-12-20T06:43:31;5.00;88.90
38514;DHT22;24282;48.400;10.808;2023-12-20T06:45:58;5.00;89.10
38514;DHT22;24282;48.400;10.808;2023-12-20T06:48:23;5.00;88.80
38514;DHT22;24282;48.400;10.808;2023-12-20T06:50:49;4.90;88.60
38514;DHT22;24282;48.400;10.808;2023-12-20T06:53:15;4.90;88.50
38514;DHT22;24282;48.400;10.808;2023-12-20T06:55:40;4.90;88.50
38514;DHT22;24282;48.400;10.808;2023-12-20T06:58:06;4.80;88.60
38514;DHT22;24282;48.400;10.808;2023-12-20T07:00:32;4.90;88.60
38514;DHT22;24282;48.400;10.808;2023-12-20T07:02:58;4.90;88.40
38514;DHT22;24282;48.400;10.808;2023-12-20T07:05:24;4.90;88.50
38514;DHT22;24282;48.400;10.808;2023-12-20T07:07:49;4.90;88.20
38514;DHT22;24282;48.400;10.808;2023-12-20T07:10:15;4.80;88.40
38514;DHT22;24282;48.400;10.808;2023-12-20T07:12:41;4.80;88.40
38514;DHT22;24282;48.400;10.808;2023-12-20T07:15:07;4.80;88.30
38514;DHT22;24282;48.400;10.808;2023-12-20T07:17:33;4.90;87.80
38514;DHT22;24282;48.400;10.808;2023-12-20T07:20:00;4.80;88.00
38514;DHT22;24282;48.400;10.808;2023-12-20T07:22:30;4.70;88.20
38514;DHT22;24282;48.400;10.808;2023-12-20T07:24:57;4.70;88.40
38514;DHT22;24282;48.400;10.808;2023-12-20T07:27:23;4.80;88.30
38514;DHT22;24282;48.400;10.808;2023-12-20T07:29:49;4.80;88.20
38514;DHT22;24282;48.400;10.808;2023-12-20T07:32:15;4.70;88.40
38514;DHT22;24282;48.400;10.808;2023-12-20T07:34:40;4.70;88.30
38514;DHT22;24282;48.400;10.808;2023-12-20T07:37:06;4.70;88.60
38514;DHT22;24282;48.400;10.808;2023-12-20T07:39:32;4.80;88.50
38514;DHT22;24282;48.400;10.808;2023-12-20T07:41:58;4.70;88.70
38514;DHT22;24282;48.400;10.808;2023-12-20T07:44:23;4.80;88.90
38514;DHT22;24282;48.400;10.808;2023-12-20T07:46:49;4.70;88.70
38514;DHT22;24282;48.400;10.808;2023-12-20T07:49:15;4.70;88.50
38514;DHT22;24282;48.400;10.808;2023-12-20T07:51:41;4.80;88.80
38514;DHT22;24282;48.400;10.808;2023-12-20T07:54:06;4.70;88.90
38514;DHT22;24282;48.400;10.808;2023-12-20T07:56:33;4.70;88.90
38514;DHT22;24282;48.400;10.808;2023-12-20T07:58:59;4.70;88.90
38514;DHT22;24282;48.400;10.808;2023-12-20T08:01:25;4.80;88.80
38514;DHT22;24282;48.400;10.808;2023-12-20T08:03:50;4.70;89.00
38514;DHT22;24282;48.400;10.808;2023-12-20T08:06:16;4.70;89.20
38514;DHT22;24282;48.400;10.808;2023-12-20T08:08:43;4.80;89.40
38514;DHT22;24282;48.400;10.808;2023-12-20T08:11:08;4.80;88.90
38514;DHT22;24282;48.400;10.808;2023-12-20T08:13:34;4.70;89.20
38514;DHT22;24282;48.400;10.808;2023-12-20T08:16:00;4.70;89.20
38514;DHT22;24282;48.400;10.808;2023-12-20T08:18:28;4.80;89.30
38514;DHT22;24282;48.400;10.808;2023-12-20T08:20:54;4.80;89.10
38514;DHT22;24282;48.400;10.808;2023-12-20T08:23:20;4.80;89.20
38514;DHT22;24282;48.400;10.808;2023-12-20T08:25:49;4.70;89.60
38514;DHT22;24282;48.400;10.808;2023-12-20T08:28:15;4.80;89.60
38514;DHT22;24282;48.400;10.808;2023-12-20T08:30:41;4.80;89.50
38514;DHT22;24282;48.400;10.808;2023-12-20T08:33:06;4.80;89.60
38514;DHT22;24282;48.400;10.808;2023-12-20T08:35:36;4.80;89.50
38514;DHT22;24282;48.400;10.808;2023-12-20T08:38:02;4.80;89.40
38514;DHT22;24282;48.400;10.808;2023-12-20T08:40:29;4.80;89.50
38514;DHT22;24282;48.400;10.808;2023-12-20T08:42:55;4.90;89.70
38514;DHT22;24282;48.400;10.808;2023-12-20T08:45:21;4.80;89.40
38514;DHT22;24282;48.400;10.808;2023-12-20T08:47:46;4.90;89.70
38514;DHT22;24282;48.400;10.808;2023-12-20T08:50:12;4.90;89.80
38514;DHT22;24282;48.400;10.808;2023-12-20T08:52:38;4.90;89.70
38514;DHT22;24282;48.400;10.808;2023-12-20T08:55:04;4.90;89.80
38514;DHT22;24282;48.400;10.808;2023-12-20T08:57:30;5.00;89.80
38514;DHT22;24282;48.400;10.808;2023-12-20T08:59:57;5.00;90.00
38514;DHT22;24282;48.400;10.808;2023-12-20T09:02:23;5.00;90.00
38514;DHT22;24282;48.400;10.808;2023-12-20T09:04:51;5.00;90.00
38514;DHT22;24282;48.400;10.808;2023-12-20T09:07:26;5.00;90.20
38514;DHT22;24282;48.400;10.808;2023-12-20T09:09:53;5.00;90.00
38514;DHT22;24282;48.400;10.808;2023-12-20T09:12:19;5.10;90.10
38514;DHT22;24282;48.400;10.808;2023-12-20T09:14:46;5.10;89.70
38514;DHT22;24282;48.400;10.808;2023-12-20T09:17:12;5.10;89.60
38514;DHT22;24282;48.400;10.808;2023-12-20T09:19:38;5.20;89.70
38514;DHT22;24282;48.400;10.808;2023-12-20T09:22:04;5.20;89.60
38514;DHT22;24282;48.400;10.808;2023-12-20T09:24:31;5.20;89.70
38514;DHT22;24282;48.400;10.808;2023-12-20T09:26:57;5.20;89.90
38514;DHT22;24282;48.400;10.808;2023-12-20T09:29:23;5.20;90.20
38514;DHT22;24282;48.400;10.808;2023-12-20T09:31:50;5.20;90.20
38514;DHT22;24282;48.400;10.808;2023-12-20T09:34:16;5.30;90.30
38514;DHT22;24282;48.400;10.808;2023-12-20T09:36:44;5.30;89.90
38514;DHT22;24282;48.400;10.808;2023-12-20T09:39:17;5.30;90.10
38514;DHT22;24282;48.400;10.808;2023-12-20T09:42:07;5.40;90.00
38514;DHT22;24282;48.400;10.808;2023-12-20T09:44:33;5.40;90.10
38514;DHT22;24282;48.400;10.808;2023-12-20T09:47:03;5.40;90.00
38514;DHT22;24282;48.400;10.808;2023-12-20T09:49:30;5.40;89.90
38514;DHT22;24282;48.400;10.808;2023-12-20T09:51:56;5.40;89.90
38514;DHT22;24282;48.400;10.808;2023-12-20T09:54:23;5.50;89.80
38514;DHT22;24282;48.400;10.808;2023-12-20T09:56:50;5.50;89.50
38514;DHT22;24282;48.400;10.808;2023-12-20T09:59:16;5.50;89.60
38514;DHT22;24282;48.400;10.808;2023-12-20T10:01:42;5.50;89.60
38514;DHT22;24282;48.400;10.808;2023-12-20T10:04:10;5.50;89.40
38514;DHT22;24282;48.400;10.808;2023-12-20T10:06:44;5.50;89.70
38514;DHT22;24282;48.400;10.808;2023-12-20T10:09:12;5.50;89.70
38514;DHT22;24282;48.400;10.808;2023-12-20T10:11:38;5.50;89.40
38514;DHT22;24282;48.400;10.808;2023-12-20T10:14:06;5.50;89.50
38514;DHT22;24282;48.400;10.808;2023-12-20T10:16:33;5.50;89.50
38514;DHT22;24282;48.400;10.808;2023-12-20T10:18:59;5.60;89.30
38514;DHT22;24282;48.400;10.808;2023-12-20T10:21:26;5.70;88.90
38514;DHT22;24282;48.400;10.808;2023-12-20T10:23:56;5.60;88.80
38514;DHT22;24282;48.400;10.808;2023-12-20T10:26:24;5.60;88.90
38514;DHT22;24282;48.400;10.808;2023-12-20T10:28:59;5.70;88.60
38514;DHT22;24282;48.400;10.808;2023-12-20T10:31:33;5.70;88.80
38514;DHT22;24282;48.400;10.808;2023-12-20T10:34:00;5.70;89.10
38514;DHT22;24282;48.400;10.808;2023-12-20T10:36:31;5.70;89.10
38514;DHT22;24282;48.400;10.808;2023-12-20T10:38:57;5.70;88.80
38514;DHT22;24282;48.400;10.808;2023-12-20T10:41:31;5.60;89.00
38514;DHT22;24282;48.400;10.808;2023-12-20T10:44:01;5.60;89.30
38514;DHT22;24282;48.400;10.808;2023-12-20T10:46:28;5.70;89.40
38514;DHT22;24282;48.400;10.808;2023-12-20T10:48:56;5.60;89.40
38514;DHT22;24282;48.400;10.808;2023-12-20T10:51:22;5.70;89.30
38514;DHT22;24282;48.400;10.808;2023-12-20T10:53:50;5.70;89.10
38514;DHT22;24282;48.400;10.808;2023-12-20T10:56:17;5.70;87.70
38514;DHT22;24282;48.400;10.808;2023-12-20T10:58:45;5.70;86.90
38514;DHT22;24282;48.400;10.808;2023-12-20T11:01:13;5.70;86.50
38514;DHT22;24282;48.400;10.808;2023-12-20T11:03:48;5.60;85.70
38514;DHT22;24282;48.400;10.808;2023-12-20T11:14:18;5.60;85.20
38514;DHT22;24282;48.400;10.808;2023-12-20T11:16:45;5.50;85.60
38514;DHT22;24282;48.400;10.808;2023-12-20T11:19:11;5.40;86.30
38514;DHT22;24282;48.400;10.808;2023-12-20T11:21:40;5.40;86.20
38514;DHT22;24282;48.400;10.808;2023-12-20T11:24:06;5.40;86.20
38514;DHT22;24282;48.400;10.808;2023-12-20T11:26:32;5.50;86.20
38514;DHT22;24282;48.400;10.808;2023-12-20T11:29:34;5.40;85.80
38514;DHT22;24282;48.400;10.808;2023-12-20T11:32:04;5.40;85.80
38514;DHT22;24282;48.400;10.808;2023-12-20T11:34:55;5.40;85.70
38514;DHT22;24282;48.400;10.808;2023-12-20T11:37:21;5.40;86.10
38514;DHT22;24282;48.400;10.808;2023-12-20T11:40:00;5.40;85.50
38514;DHT22;24282;48.400;10.808;2023-12-20T11:42:27;5.40;85.50
38514;DHT22;24282;48.400;10.808;2023-12-20T11:44:53;5.40;85.50
38514;DHT22;24282;48.400;10.808;2023-12-20T11:47:19;5.50;85.20
38514;DHT22;24282;48.400;10.808;2023-12-20T11:49:48;5.60;83.70
38514;DHT22;24282;48.400;10.808;2023-12-20T11:52:14;5.70;83.20
38514;DHT22;24282;48.400;10.808;2023-12-20T11:54:40;5.80;82.40
38514;DHT22;24282;48.400;10.808;2023-12-20T11:57:06;5.70;81.70
38514;DHT22;24282;48.400;10.808;2023-12-20T11:59:31;5.70;80.90
38514;DHT22;24282;48.400;10.808;2023-12-20T12:01:58;5.70;81.90
38514;DHT22;24282;48.400;10.808;2023-12-20T12:04:26;5.70;81.80
38514;DHT22;24282;48.400;10.808;2023-12-20T12:06:53;5.60;81.60
38514;DHT22;24282;48.400;10.808;2023-12-20T12:09:19;5.60;81.90
38514;DHT22;24282;48.400;10.808;2023-12-20T12:11:45;5.60;82.30
38514;DHT22;24282;48.400;10.808;2023-12-20T12:14:11;5.50;82.50
38514;DHT22;24282;48.400;10.808;2023-12-20T12:16:37;5.60;81.80
38514;DHT22;24282;48.400;10.808;2023-12-20T12:19:02;5.60;80.80
38514;DHT22;24282;48.400;10.808;2023-12-20T12:21:29;5.60;81.50
38514;DHT22;24282;48.400;10.808;2023-12-20T12:24:07;5.60;81.40
38514;DHT22;24282;48.400;10.808;2023-12-20T12:26:33;5.50;82.00
38514;DHT22;24282;48.400;10.808;2023-12-20T12:28:59;5.70;80.00
38514;DHT22;24282;48.400;10.808;2023-12-20T12:31:24;5.70;80.30
38514;DHT22;24282;48.400;10.808;2023-12-20T12:33:52;5.60;80.90
38514;DHT22;24282;48.400;10.808;2023-12-20T12:36:18;5.70;78.90
38514;DHT22;24282;48.400;10.808;2023-12-20T12:38:44;5.70;79.00
38514;DHT22;24282;48.400;10.808;2023-12-20T12:41:12;5.60;79.60
38514;DHT22;24282;48.400;10.808;2023-12-20T12:43:38;5.60;78.40
38514;DHT22;24282;48.400;10.808;2023-12-20T12:46:03;5.60;78.00
38514;DHT22;24282;48.400;10.808;2023-12-20T12:48:29;5.50;79.20
38514;DHT22;24282;48.400;10.808;2023-12-20T12:50:55;5.50;78.90
38514;DHT22;24282;48.400;10.808;2023-12-20T12:53:25;5.40;79.10
38514;DHT22;24282;48.400;10.808;2023-12-20T12:55:52;5.40;79.40
38514;DHT22;24282;48.400;10.808;2023-12-20T12:58:18;5.40;79.80
38514;DHT22;24282;48.400;10.808;2023-12-20T13:00:44;5.50;80.00
38514;DHT22;24282;48.400;10.808;2023-12-20T13:03:09;5.60;78.80
38514;DHT22;24282;48.400;10.808;2023-12-20T13:05:35;5.60;78.60
38514;DHT22;24282;48.400;10.808;2023-12-20T13:08:01;5.60;78.70
38514;DHT22;24282;48.400;10.808;2023-12-20T13:10:27;5.70;78.00
38514;DHT22;24282;48.400;10.808;2023-12-20T13:12:52;5.70;77.90
38514;DHT22;24282;48.400;10.808;2023-12-20T13:15:18;5.70;78.60
38514;DHT22;24282;48.400;10.808;2023-12-20T13:17:44;5.70;77.90
38514;DHT22;24282;48.400;10.808;2023-12-20T13:20:11;5.70;77.50
38514;DHT22;24282;48.400;10.808;2023-12-20T13:22:37;5.70;77.70
38514;DHT22;24282;48.400;10.808;2023-12-20T13:25:03;5.70;76.80
38514;DHT22;24282;48.400;10.808;2023-12-20T13:27:29;5.70;77.30
38514;DHT22;24282;48.400;10.808;2023-12-20T13:29:55;5.70;77.00
38514;DHT22;24282;48.400;10.808;2023-12-20T13:32:20;5.60;77.10
38514;DHT22;24282;48.400;10.808;2023-12-20T13:34:46;5.60;77.80
38514;DHT22;24282;48.400;10.808;2023-12-20T13:37:13;5.60;77.20
38514;DHT22;24282;48.400;10.808;2023-12-20T13:39:39;5.60;76.80
38514;DHT22;24282;48.400;10.808;2023-12-20T13:42:05;5.50;77.60
38514;DHT22;24282;48.400;10.808;2023-12-20T13:44:31;5.50;77.60
38514;DHT22;24282;48.400;10.808;2023-12-20T13:46:57;5.40;77.60
38514;DHT22;24282;48.400;10.808;2023-12-20T13:49:29;5.40;77.30
38514;DHT22;24282;48.400;10.808;2023-12-20T13:51:55;5.40;77.30
38514;DHT22;24282;48.400;10.808;2023-12-20T13:54:21;5.50;76.60
38514;DHT22;24282;48.400;10.808;2023-12-20T13:56:47;5.50;76.90
38514;DHT22;24282;48.400;10.808;2023-12-20T13:59:16;5.40;77.40
38514;DHT22;24282;48.400;10.808;2023-12-20T14:01:42;5.40;77.30
38514;DHT22;24282;48.400;10.808;2023-12-20T14:04:07;5.40;76.70
38514;DHT22;24282;48.400;10.808;2023-12-20T14:06:33;5.50;76.50
38514;DHT22;24282;48.400;10.808;2023-12-20T14:08:59;5.50;75.90
38514;DHT22;24282;48.400;10.808;2023-12-20T14:11:31;5.50;76.60
38514;DHT22;24282;48.400;10.808;2023-12-20T14:13:56;5.50;76.70
38514;DHT22;24282;48.400;10.808;2023-12-20T14:16:26;5.40;75.90
38514;DHT22;24282;48.400;10.808;2023-12-20T14:18:52;5.40;76.10
38514;DHT22;24282;48.400;10.808;2023-12-20T14:21:17;5.40;75.40
38514;DHT22;24282;48.400;10.808;2023-12-20T14:23:45;5.40;76.40
38514;DHT22;24282;48.400;10.808;2023-12-20T14:26:11;5.40;75.70
38514;DHT22;24282;48.400;10.808;2023-12-20T14:28:41;5.40;75.30
38514;DHT22;24282;48.400;10.808;2023-12-20T14:31:07;5.40;75.20
38514;DHT22;24282;48.400;10.808;2023-12-20T14:33:34;5.40;75.90
38514;DHT22;24282;48.400;10.808;2023-12-20T14:36:00;5.30;75.10
38514;DHT22;24282;48.400;10.808;2023-12-20T14:38:25;5.40;74.40
38514;DHT22;24282;48.400;10.808;2023-12-20T14:40:51;5.40;74.40
38514;DHT22;24282;48.400;10.808;2023-12-20T14:43:17;5.30;74.90
38514;DHT22;24282;48.400;10.808;2023-12-20T14:45:43;5.40;73.40
38514;DHT22;24282;48.400;10.808;2023-12-20T14:48:09;5.40;73.60
38514;DHT22;24282;48.400;10.808;2023-12-20T14:50:34;5.30;74.70
38514;DHT22;24282;48.400;10.808;2023-12-20T14:53:02;5.30;73.80
38514;DHT22;24282;48.400;10.808;2023-12-20T14:55:27;5.20;73.80
38514;DHT22;24282;48.400;10.808;2023-12-20T14:57:55;5.20;73.00
38514;DHT22;24282;48.400;10.808;2023-12-20T15:00:20;5.10;73.00
38514;DHT22;24282;48.400;10.808;2023-12-20T15:02:46;5.20;72.50
38514;DHT22;24282;48.400;10.808;2023-12-20T15:05:12;5.20;71.40
38514;DHT22;24282;48.400;10.808;2023-12-20T15:07:38;5.20;72.30
38514;DHT22;24282;48.400;10.808;2023-12-20T15:10:04;5.10;72.90
38514;DHT22;24282;48.400;10.808;2023-12-20T15:12:29;5.10;73.10
38514;DHT22;24282;48.400;10.808;2023-12-20T15:14:55;5.10;72.20
38514;DHT22;24282;48.400;10.808;2023-12-20T15:17:22;5.10;72.70
38514;DHT22;24282;48.400;10.808;2023-12-20T15:19:47;5.10;72.20
38514;DHT22;24282;48.400;10.808;2023-12-20T15:22:16;5.10;72.60
38514;DHT22;24282;48.400;10.808;2023-12-20T15:24:41;5.20;72.70
38514;DHT22;24282;48.400;10.808;2023-12-20T15:27:09;5.10;73.40
38514;DHT22;24282;48.400;10.808;2023-12-20T15:29:35;5.00;73.70
38514;DHT22;24282;48.400;10.808;2023-12-20T15:32:02;5.00;73.60
38514;DHT22;24282;48.400;10.808;2023-12-20T15:34:29;4.90;74.10